PWSweather.com
Personal Weather Stations
Station Observations
KNVELKO7
Elko, NV 89801

Elko, NV 89801

Lat: 40.963233, Lon: -115.592836

Elevation: 5230

Station Type: WS-2812

Latest ConditionsUpdated 4:51:39 AM PST Monday, Jan 16, 2017
Currently Today's Max Today's Min Today's Average
Temperature 16.7°F-8.5°C 19.1°F-7.2°C 16.7°F-8.5°C 17.8°F-7.9°C
Dew Point 13.1°F-10.5°C 15.5°F-9.2°C 13.1°F-10.5°C 14.2°F-9.9°C
Winds 4.9 mph 7.9 kmh 7.8 mph N12.6 kmh N - 3.2 mph 5.1 kmh
Wind Gusts 5.6 mph9.0 kmh 9.4 mph15.1 kmh - -
Humidity 86% 87% 85% 86%
Pressure 30.25 in1024.4 mb 30.25 in1024.4 mb 30.23 in1023.7 mb -
Hour Temp Dew Point Humidity Winds Wind Gusts Pressure Precip Precip Rate Daily Precip Total
04:51 AM 16.7°F-8.5°C 13.1°F-10.5°C 86% 4.9 mph 7.9 kmh 5.6 mph9.0 kmh 30.25 in1024.4 mb 0.00 in0.0 mm 0.00 in0.0 mm 0.00 in0.0 mm
04:46 AM 16.7°F-8.5°C 13.1°F-10.5°C 86% 2.0 mph 3.2 kmh 3.4 mph5.5 kmh 30.25 in1024.4 mb 0.00 in0.0 mm 0.00 in0.0 mm 0.00 in0.0 mm
04:41 AM 16.7°F-8.5°C 13.1°F-10.5°C 86% 2.7 mph N4.3 kmh N 4.9 mph7.9 kmh 30.25 in1024.4 mb 0.00 in0.0 mm 0.00 in0.0 mm 0.00 in0.0 mm
04:36 AM 16.7°F-8.5°C 13.1°F-10.5°C 86% 3.0 mph 4.8 kmh 4.9 mph7.9 kmh 30.25 in1024.4 mb 0.00 in0.0 mm 0.00 in0.0 mm 0.00 in0.0 mm
04:31 AM 16.7°F-8.5°C 13.1°F-10.5°C 86% 3.6 mph 5.8 kmh 4.9 mph7.9 kmh 30.25 in1024.4 mb 0.00 in0.0 mm 0.00 in0.0 mm 0.00 in0.0 mm
04:27 AM 16.7°F-8.5°C 13.1°F-10.5°C 86% 4.2 mph NNW6.8 kmh NNW 4.9 mph7.9 kmh 30.25 in1024.4 mb 0.00 in0.0 mm 0.00 in0.0 mm 0.00 in0.0 mm
04:22 AM 16.9°F-8.4°C 13.3°F-10.4°C 86% 3.5 mph N5.6 kmh N 4.7 mph7.6 kmh 30.25 in1024.4 mb 0.00 in0.0 mm 0.00 in0.0 mm 0.00 in0.0 mm
04:17 AM 16.9°F-8.4°C 13.3°F-10.4°C 86% 2.4 mph NNW3.9 kmh NNW 5.1 mph8.2 kmh 30.25 in1024.4 mb 0.00 in0.0 mm 0.00 in0.0 mm 0.00 in0.0 mm
04:12 AM 16.9°F-8.4°C 13.3°F-10.4°C 86% 3.9 mph NNW6.3 kmh NNW 5.1 mph8.2 kmh 30.25 in1024.4 mb 0.00 in0.0 mm 0.00 in0.0 mm 0.00 in0.0 mm
04:07 AM 17.1°F-8.3°C 13.5°F-10.3°C 86% 3.3 mph NNW5.3 kmh NNW 4.0 mph6.4 kmh 30.25 in1024.4 mb 0.00 in0.0 mm 0.00 in0.0 mm 0.00 in0.0 mm
04:02 AM 17.1°F-8.3°C 13.5°F-10.3°C 86% 3.5 mph NNW5.6 kmh NNW 3.6 mph5.8 kmh 30.25 in1024.4 mb 0.00 in0.0 mm 0.00 in0.0 mm 0.00 in0.0 mm
03:56 AM 17.1°F-8.3°C 13.5°F-10.3°C 86% 0.8 mph 1.3 kmh 3.1 mph5.0 kmh 30.25 in1024.4 mb 0.00 in0.0 mm 0.00 in0.0 mm 0.00 in0.0 mm
03:51 AM 17.1°F-8.3°C 13.5°F-10.3°C 86% 2.3 mph 3.7 kmh 3.1 mph5.0 kmh 30.25 in1024.4 mb 0.00 in0.0 mm 0.00 in0.0 mm 0.00 in0.0 mm
03:46 AM 17.1°F-8.3°C 13.5°F-10.3°C 86% 2.2 mph N3.5 kmh N 4.0 mph6.4 kmh 30.25 in1024.4 mb 0.00 in0.0 mm 0.00 in0.0 mm 0.00 in0.0 mm
03:41 AM 17.1°F-8.3°C 13.5°F-10.3°C 86% 1.0 mph 1.6 kmh 4.0 mph6.4 kmh 30.24 in1024.0 mb 0.00 in0.0 mm 0.00 in0.0 mm 0.00 in0.0 mm
03:36 AM 16.9°F-8.4°C 13.3°F-10.4°C 86% 3.3 mph N5.3 kmh N 3.6 mph5.8 kmh 30.24 in1024.0 mb 0.00 in0.0 mm 0.00 in0.0 mm 0.00 in0.0 mm
03:31 AM 16.9°F-8.4°C 13.6°F-10.2°C 87% 2.3 mph 3.7 kmh 4.5 mph7.2 kmh 30.25 in1024.4 mb 0.00 in0.0 mm 0.00 in0.0 mm 0.00 in0.0 mm
03:26 AM 16.9°F-8.4°C 13.3°F-10.4°C 86% 2.9 mph 4.7 kmh 4.5 mph7.2 kmh 30.25 in1024.4 mb 0.00 in0.0 mm 0.00 in0.0 mm 0.00 in0.0 mm
03:21 AM 16.9°F-8.4°C 13.3°F-10.4°C 86% 3.6 mph 5.8 kmh 5.6 mph9.0 kmh 30.25 in1024.4 mb 0.00 in0.0 mm 0.00 in0.0 mm 0.00 in0.0 mm
03:16 AM 16.7°F-8.5°C 13.1°F-10.5°C 86% 4.5 mph N7.2 kmh N 5.6 mph9.0 kmh 30.25 in1024.4 mb 0.00 in0.0 mm 0.00 in0.0 mm 0.00 in0.0 mm
03:11 AM 16.7°F-8.5°C 13.1°F-10.5°C 86% 4.0 mph 6.4 kmh 5.8 mph9.3 kmh 30.25 in1024.4 mb 0.00 in0.0 mm 0.00 in0.0 mm 0.00 in0.0 mm
03:06 AM 16.7°F-8.5°C 13.1°F-10.5°C 86% 4.7 mph 7.6 kmh 6.3 mph10.1 kmh 30.25 in1024.4 mb 0.00 in0.0 mm 0.00 in0.0 mm 0.00 in0.0 mm
03:01 AM 16.7°F-8.5°C 13.1°F-10.5°C 86% 5.4 mph 8.7 kmh 6.3 mph10.1 kmh 30.25 in1024.4 mb 0.00 in0.0 mm 0.00 in0.0 mm 0.00 in0.0 mm
02:56 AM 16.9°F-8.4°C 13.3°F-10.4°C 86% 4.1 mph N6.6 kmh N 5.8 mph9.3 kmh 30.25 in1024.4 mb 0.00 in0.0 mm 0.00 in0.0 mm 0.00 in0.0 mm
02:51 AM 16.9°F-8.4°C 13.3°F-10.4°C 86% 5.0 mph NE8.0 kmh NE 5.1 mph8.2 kmh 30.25 in1024.4 mb 0.00 in0.0 mm 0.00 in0.0 mm 0.00 in0.0 mm
02:46 AM 16.9°F-8.4°C 13.3°F-10.4°C 86% 4.6 mph NNE7.4 kmh NNE 5.4 mph8.7 kmh 30.25 in1024.4 mb 0.00 in0.0 mm 0.00 in0.0 mm 0.00 in0.0 mm
02:41 AM 17.1°F-8.3°C 13.5°F-10.3°C 86% 4.6 mph NE7.4 kmh NE 5.4 mph8.7 kmh 30.24 in1024.0 mb 0.00 in0.0 mm 0.00 in0.0 mm 0.00 in0.0 mm
02:36 AM 17.5°F-8.1°C 13.9°F-10.1°C 86% 5.2 mph NE8.4 kmh NE 5.4 mph8.7 kmh 30.24 in1024.0 mb 0.00 in0.0 mm 0.00 in0.0 mm 0.00 in0.0 mm
02:31 AM 17.6°F-8.0°C 14.0°F-10.0°C 86% 3.9 mph NE6.3 kmh NE 4.9 mph7.9 kmh 30.24 in1024.0 mb 0.00 in0.0 mm 0.00 in0.0 mm 0.00 in0.0 mm
02:26 AM 18.2°F-7.7°C 14.6°F-9.7°C 86% 4.8 mph NNE7.7 kmh NNE 4.9 mph7.9 kmh 30.24 in1024.0 mb 0.00 in0.0 mm 0.00 in0.0 mm 0.00 in0.0 mm
02:21 AM 18.2°F-7.7°C 14.6°F-9.7°C 86% 4.0 mph 6.4 kmh 4.5 mph7.2 kmh 30.25 in1024.4 mb 0.00 in0.0 mm 0.00 in0.0 mm 0.00 in0.0 mm
02:16 AM 18.4°F-7.6°C 14.8°F-9.6°C 86% 2.6 mph N4.2 kmh N 3.8 mph6.1 kmh 30.24 in1024.0 mb 0.00 in0.0 mm 0.00 in0.0 mm 0.00 in0.0 mm
02:11 AM 18.4°F-7.6°C 14.8°F-9.6°C 86% 2.3 mph NNW3.7 kmh NNW 3.4 mph5.5 kmh 30.25 in1024.4 mb 0.00 in0.0 mm 0.00 in0.0 mm 0.00 in0.0 mm
02:06 AM 18.4°F-7.6°C 14.8°F-9.6°C 86% 2.3 mph N3.7 kmh N 3.4 mph5.5 kmh 30.24 in1024.0 mb 0.00 in0.0 mm 0.00 in0.0 mm 0.00 in0.0 mm
02:01 AM 18.4°F-7.6°C 14.8°F-9.6°C 86% 2.9 mph N4.7 kmh N 4.0 mph6.4 kmh 30.24 in1024.0 mb 0.00 in0.0 mm 0.00 in0.0 mm 0.00 in0.0 mm
01:56 AM 18.5°F-7.5°C 14.9°F-9.5°C 86% 3.0 mph NNW4.8 kmh NNW 4.0 mph6.4 kmh 30.24 in1024.0 mb 0.00 in0.0 mm 0.00 in0.0 mm 0.00 in0.0 mm
01:51 AM 18.7°F-7.4°C 15.1°F-9.4°C 86% 3.0 mph NNW4.8 kmh NNW 4.3 mph6.9 kmh 30.24 in1024.0 mb 0.00 in0.0 mm 0.00 in0.0 mm 0.00 in0.0 mm
01:46 AM 18.7°F-7.4°C 15.1°F-9.4°C 86% 3.7 mph NNW6.0 kmh NNW 4.5 mph7.2 kmh 30.24 in1024.0 mb 0.00 in0.0 mm 0.00 in0.0 mm 0.00 in0.0 mm
01:41 AM 18.7°F-7.4°C 15.1°F-9.4°C 86% 4.0 mph NNW6.4 kmh NNW 4.5 mph7.2 kmh 30.24 in1024.0 mb 0.00 in0.0 mm 0.00 in0.0 mm 0.00 in0.0 mm
01:36 AM 18.9°F-7.3°C 15.3°F-9.3°C 86% 3.6 mph NNW5.8 kmh NNW 4.0 mph6.4 kmh 30.24 in1024.0 mb 0.00 in0.0 mm 0.00 in0.0 mm 0.00 in0.0 mm
01:31 AM 19.1°F-7.2°C 15.5°F-9.2°C 86% 2.6 mph NNW4.2 kmh NNW 3.1 mph5.0 kmh 30.24 in1024.0 mb 0.00 in0.0 mm 0.00 in0.0 mm 0.00 in0.0 mm
01:26 AM 19.1°F-7.2°C 15.5°F-9.2°C 86% 2.3 mph NNW3.7 kmh NNW 3.4 mph5.5 kmh 30.24 in1024.0 mb 0.00 in0.0 mm 0.00 in0.0 mm 0.00 in0.0 mm
01:21 AM 19.1°F-7.2°C 15.5°F-9.2°C 86% 3.3 mph NNW5.3 kmh NNW 3.4 mph5.5 kmh 30.24 in1024.0 mb 0.00 in0.0 mm 0.00 in0.0 mm 0.00 in0.0 mm
01:16 AM 19.1°F-7.2°C 15.5°F-9.2°C 86% 0.4 mph NW0.6 kmh NW 2.5 mph4.0 kmh 30.24 in1024.0 mb 0.00 in0.0 mm 0.00 in0.0 mm 0.00 in0.0 mm
01:11 AM 19.1°F-7.2°C 15.5°F-9.2°C 86% 0.7 mph W1.1 kmh W 3.4 mph5.5 kmh 30.24 in1024.0 mb 0.00 in0.0 mm 0.00 in0.0 mm 0.00 in0.0 mm
01:06 AM 19.1°F-7.2°C 15.5°F-9.2°C 86% 2.6 mph NW4.2 kmh NW 3.4 mph5.5 kmh 30.24 in1024.0 mb 0.00 in0.0 mm 0.00 in0.0 mm 0.00 in0.0 mm
01:01 AM 18.9°F-7.3°C 15.3°F-9.3°C 86% Calm Calm 1.1 mph1.8 kmh 30.24 in1024.0 mb 0.00 in0.0 mm 0.00 in0.0 mm 0.00 in0.0 mm
12:55 AM 18.7°F-7.4°C 15.1°F-9.4°C 86% Calm Calm 2.7 mph4.3 kmh 30.24 in1024.0 mb 0.00 in0.0 mm 0.00 in0.0 mm 0.00 in0.0 mm
12:50 AM 18.7°F-7.4°C 15.1°F-9.4°C 86% 2.0 mph W3.2 kmh W 3.6 mph5.8 kmh 30.24 in1024.0 mb 0.00 in0.0 mm 0.00 in0.0 mm 0.00 in0.0 mm
12:45 AM 18.5°F-7.5°C 14.9°F-9.5°C 86% 0.2 mph 0.3 kmh 3.8 mph6.1 kmh 30.23 in1023.7 mb 0.00 in0.0 mm 0.00 in0.0 mm 0.00 in0.0 mm
12:41 AM 18.4°F-7.6°C 14.8°F-9.6°C 86% 3.7 mph 6.0 kmh 3.8 mph6.1 kmh 30.23 in1023.7 mb 0.00 in0.0 mm 0.00 in0.0 mm 0.00 in0.0 mm
12:36 AM 18.4°F-7.6°C 14.8°F-9.6°C 86% 2.0 mph 3.2 kmh 2.7 mph4.3 kmh 30.23 in1023.7 mb 0.00 in0.0 mm 0.00 in0.0 mm 0.00 in0.0 mm
12:31 AM 18.4°F-7.6°C 14.8°F-9.6°C 86% 1.5 mph NNW2.4 kmh NNW 3.8 mph6.1 kmh 30.23 in1023.7 mb 0.00 in0.0 mm 0.00 in0.0 mm 0.00 in0.0 mm
12:26 AM 18.4°F-7.6°C 14.8°F-9.6°C 86% 2.8 mph N4.5 kmh N 4.0 mph6.4 kmh 30.23 in1023.7 mb 0.00 in0.0 mm 0.00 in0.0 mm 0.00 in0.0 mm
12:21 AM 18.2°F-7.7°C 14.6°F-9.7°C 86% 2.3 mph N3.7 kmh N 6.0 mph9.7 kmh 30.24 in1024.0 mb 0.00 in0.0 mm 0.00 in0.0 mm 0.00 in0.0 mm
12:16 AM 18.2°F-7.7°C 14.6°F-9.7°C 86% 4.0 mph NNE6.4 kmh NNE 9.4 mph15.1 kmh 30.24 in1024.0 mb 0.00 in0.0 mm 0.00 in0.0 mm 0.00 in0.0 mm
12:11 AM 18.4°F-7.6°C 14.8°F-9.6°C 86% 5.6 mph N9.0 kmh N 9.4 mph15.1 kmh 30.24 in1024.0 mb 0.00 in0.0 mm 0.00 in0.0 mm 0.00 in0.0 mm
12:06 AM 18.4°F-7.6°C 14.8°F-9.6°C 86% 7.8 mph N12.6 kmh N 8.9 mph14.3 kmh 30.24 in1024.0 mb 0.00 in0.0 mm 0.00 in0.0 mm 0.00 in0.0 mm
12:01 AM 18.5°F-7.5°C 14.7°F-9.6°C 85% 4.8 mph 7.7 kmh 7.8 mph12.6 kmh 30.24 in1024.0 mb 0.00 in0.0 mm 0.00 in0.0 mm 0.00 in0.0 mm